createdAt,value
2022-12-20T00:01:57.111Z,13.83
2022-12-20T00:04:25.032Z,13.43
2022-12-20T00:06:53.025Z,11.67
2022-12-20T00:09:20.967Z,13.37
2022-12-20T00:11:48.949Z,12.43
2022-12-20T00:14:16.855Z,10.47
2022-12-20T00:16:45.022Z,18.30
2022-12-20T00:19:14.413Z,14.73
2022-12-20T00:21:42.309Z,13.17
2022-12-20T00:24:11.514Z,13.63
2022-12-20T00:26:39.522Z,12.17
2022-12-20T00:29:09.747Z,13.43
2022-12-20T00:31:37.638Z,12.90
2022-12-20T00:34:05.779Z,12.97
2022-12-20T00:36:35.079Z,11.93
2022-12-20T00:39:05.929Z,11.73
2022-12-20T00:41:35.638Z,12.90
2022-12-20T00:44:04.227Z,12.07
2022-12-20T00:46:35.636Z,11.67
2022-12-20T00:49:03.735Z,12.47
2022-12-20T00:51:32.819Z,11.17
2022-12-20T00:54:04.543Z,12.33
2022-12-20T00:56:34.488Z,11.03
2022-12-20T00:59:11.592Z,13.17
2022-12-20T01:01:39.699Z,13.50
2022-12-20T01:04:10.204Z,13.77
2022-12-20T01:06:38.709Z,13.67
2022-12-20T01:09:07.984Z,12.77
2022-12-20T01:11:38.093Z,11.87
2022-12-20T01:14:12.029Z,12.33
2022-12-20T01:16:42.987Z,13.97
2022-12-20T01:19:13.382Z,14.03
2022-12-20T01:21:45.352Z,14.13
2022-12-20T01:24:15.954Z,13.40
2022-12-20T01:26:44.224Z,13.87
2022-12-20T01:29:12.635Z,12.07
2022-12-20T01:31:41.369Z,13.70
2022-12-20T01:34:09.341Z,13.33
2022-12-20T01:36:39.137Z,12.40
2022-12-20T01:39:10.550Z,13.73
2022-12-20T01:41:44.845Z,12.23
2022-12-20T01:44:42.454Z,13.63
2022-12-20T01:47:11.055Z,11.57
2022-12-20T01:49:45.350Z,11.73
2022-12-20T01:52:16.400Z,12.03
2022-12-20T01:54:48.113Z,11.17
2022-12-20T01:57:22.279Z,12.60
2022-12-20T01:59:53.070Z,10.83
2022-12-20T02:02:21.658Z,11.10
2022-12-20T02:04:49.585Z,12.50
2022-12-20T02:07:22.466Z,10.60
2022-12-20T02:09:50.847Z,11.87
2022-12-20T02:12:23.659Z,11.27
2022-12-20T02:15:05.449Z,11.60
2022-12-20T02:17:46.389Z,12.73
2022-12-20T02:20:36.223Z,12.50
2022-12-20T02:23:32.004Z,11.70
2022-12-20T02:26:16.671Z,11.70
2022-12-20T02:29:09.544Z,9.90
2022-12-20T02:31:44.149Z,10.93
2022-12-20T02:34:13.819Z,12.03
2022-12-20T02:36:41.809Z,12.10
2022-12-20T02:39:11.152Z,11.43
2022-12-20T02:41:43.465Z,10.63
2022-12-20T02:44:33.146Z,11.83
2022-12-20T02:47:10.607Z,11.87
2022-12-20T02:49:42.309Z,11.53
2022-12-20T02:52:13.876Z,11.80
2022-12-20T02:54:42.690Z,11.83
2022-12-20T02:57:17.961Z,11.63
2022-12-20T02:59:52.703Z,9.90
2022-12-20T03:02:22.502Z,11.63
2022-12-20T03:04:55.316Z,10.97
2022-12-20T03:07:24.079Z,11.13
2022-12-20T03:09:55.436Z,11.97
2022-12-20T03:12:23.430Z,12.67
2022-12-20T03:14:51.568Z,13.23
2022-12-20T03:17:20.890Z,12.27
2022-12-20T03:19:48.891Z,11.03
2022-12-20T03:22:16.745Z,10.63
2022-12-20T03:24:46.851Z,11.33
2022-12-20T03:27:17.776Z,10.40
2022-12-20T03:29:46.094Z,10.97
2022-12-20T03:32:14.173Z,12.13
2022-12-20T03:34:46.311Z,12.30
2022-12-20T03:37:16.374Z,12.17
2022-12-20T03:39:44.305Z,13.07
2022-12-20T03:42:12.352Z,12.47
2022-12-20T03:44:43.086Z,12.17
2022-12-20T03:47:11.773Z,10.20
2022-12-20T03:49:39.688Z,11.27
2022-12-20T03:52:13.405Z,10.63
2022-12-20T03:54:41.763Z,10.50
2022-12-20T03:57:13.876Z,12.13
2022-12-20T03:59:41.909Z,11.47
2022-12-20T04:02:12.855Z,12.20
2022-12-20T04:04:40.817Z,13.00
2022-12-20T04:07:08.939Z,12.83
2022-12-20T04:09:40.577Z,11.37
2022-12-20T04:12:12.656Z,12.00
2022-12-20T04:14:41.074Z,12.07
2022-12-20T04:17:08.943Z,12.90
2022-12-20T04:19:38.140Z,12.07
2022-12-20T04:22:07.319Z,11.40
2022-12-20T04:24:51.117Z,9.90
2022-12-20T04:27:27.033Z,9.30
2022-12-20T04:29:58.342Z,10.67
2022-12-20T04:32:26.317Z,12.33
2022-12-20T04:34:54.237Z,11.03
2022-12-20T04:37:22.348Z,10.77
2022-12-20T04:39:58.348Z,11.83
2022-12-20T04:42:46.236Z,10.83
2022-12-20T04:45:16.071Z,11.20
2022-12-20T04:47:43.951Z,11.50
2022-12-20T04:50:14.192Z,10.30
2022-12-20T04:53:01.680Z,11.03
2022-12-20T04:55:31.750Z,10.73
2022-12-20T04:58:07.227Z,11.13
2022-12-20T05:00:37.447Z,9.43
2022-12-20T05:03:18.159Z,11.17
2022-12-20T05:05:46.242Z,10.80
2022-12-20T05:08:14.289Z,10.07
2022-12-20T05:10:43.851Z,12.53
2022-12-20T05:13:12.387Z,11.40
2022-12-20T05:15:44.296Z,9.73
2022-12-20T05:18:13.114Z,11.43
2022-12-20T05:21:15.524Z,10.90
2022-12-20T05:24:03.651Z,10.70
2022-12-20T05:26:38.235Z,10.27
2022-12-20T05:29:08.972Z,10.67
2022-12-20T05:31:37.344Z,9.40
2022-12-20T05:34:05.616Z,9.87
2022-12-20T05:36:36.777Z,11.37
2022-12-20T05:39:07.152Z,10.40
2022-12-20T05:41:41.249Z,11.03
2022-12-20T05:44:10.108Z,10.97
2022-12-20T05:46:41.844Z,9.83
2022-12-20T05:49:14.993Z,10.30
2022-12-20T05:51:43.164Z,10.87
2022-12-20T05:54:26.197Z,10.50
2022-12-20T05:57:04.601Z,10.97
2022-12-20T05:59:36.979Z,10.07
2022-12-20T06:02:07.276Z,10.30
2022-12-20T06:04:36.687Z,9.23
2022-12-20T06:07:11.521Z,10.13
2022-12-20T06:09:39.411Z,11.10
2022-12-20T06:12:15.036Z,9.73
2022-12-20T06:14:43.923Z,10.03
2022-12-20T06:17:13.771Z,8.27
2022-12-20T06:19:42.352Z,10.87
2022-12-20T06:22:12.633Z,9.43
2022-12-20T06:24:48.235Z,9.73
2022-12-20T06:27:22.261Z,8.43
2022-12-20T06:29:58.369Z,9.40
2022-12-20T06:32:31.460Z,10.00
2022-12-20T06:34:59.351Z,9.30
2022-12-20T06:37:27.296Z,9.73
2022-12-20T06:39:55.301Z,8.17
2022-12-20T06:42:25.417Z,8.87
2022-12-20T06:44:55.318Z,9.93
2022-12-20T06:47:23.299Z,9.47
2022-12-20T06:49:52.966Z,9.37
2022-12-20T06:52:23.878Z,8.83
2022-12-20T06:54:55.624Z,9.13
2022-12-20T06:57:25.550Z,8.50
2022-12-20T06:59:55.039Z,9.43
2022-12-20T07:02:25.298Z,8.93
2022-12-20T07:04:55.469Z,8.93
2022-12-20T07:07:23.429Z,8.43
2022-12-20T07:09:51.204Z,7.77
2022-12-20T07:12:20.508Z,8.47
2022-12-20T07:14:49.915Z,9.37
2022-12-20T07:17:20.130Z,8.23
2022-12-20T07:19:51.202Z,7.67
2022-12-20T07:22:19.543Z,8.97
2022-12-20T07:24:47.624Z,8.07
2022-12-20T07:27:15.434Z,8.47
2022-12-20T07:29:43.287Z,10.00
2022-12-20T07:32:14.399Z,12.77
2022-12-20T07:34:42.340Z,7.83
2022-12-20T07:37:11.372Z,8.70
2022-12-20T07:39:39.246Z,8.63
2022-12-20T07:42:07.196Z,8.57
2022-12-20T07:44:43.348Z,7.93
2022-12-20T07:47:12.957Z,8.40
2022-12-20T07:49:41.089Z,7.40
2022-12-20T07:52:11.658Z,8.43
2022-12-20T07:54:45.967Z,8.67
2022-12-20T07:57:20.447Z,8.23
2022-12-20T07:59:52.385Z,8.20
2022-12-20T08:02:26.905Z,7.43
2022-12-20T08:04:56.549Z,7.27
2022-12-20T08:07:25.212Z,7.47
2022-12-20T08:09:53.460Z,7.80
2022-12-20T08:12:22.830Z,7.47
2022-12-20T08:14:52.359Z,7.57
2022-12-20T08:17:21.563Z,7.73
2022-12-20T08:19:51.627Z,8.07
2022-12-20T08:22:20.285Z,6.63
2022-12-20T08:24:48.185Z,8.07
2022-12-20T08:27:16.313Z,7.90
2022-12-20T08:29:45.129Z,7.77
2022-12-20T08:32:14.273Z,7.33
2022-12-20T08:34:43.411Z,8.20
2022-12-20T08:37:15.016Z,6.73
2022-12-20T08:39:43.278Z,8.00
2022-12-20T08:42:11.151Z,8.03
2022-12-20T08:44:39.058Z,8.13
2022-12-20T08:47:06.828Z,7.63
2022-12-20T08:49:34.891Z,7.73
2022-12-20T08:52:04.121Z,7.47
2022-12-20T08:54:31.922Z,6.97
2022-12-20T08:56:59.736Z,6.87
2022-12-20T08:59:27.722Z,6.90
2022-12-20T09:01:55.819Z,7.47
2022-12-20T09:04:23.779Z,6.70
2022-12-20T09:06:51.780Z,7.37
2022-12-20T09:09:20.988Z,7.23
2022-12-20T09:11:48.887Z,6.73
2022-12-20T09:14:17.245Z,6.77
2022-12-20T09:16:45.140Z,6.23
2022-12-20T09:19:14.819Z,7.17
2022-12-20T09:21:42.668Z,6.37
2022-12-20T09:24:10.568Z,7.10
2022-12-20T09:26:41.896Z,6.77
2022-12-20T09:29:09.878Z,6.93
2022-12-20T09:31:38.552Z,6.63
2022-12-20T09:34:06.562Z,7.07
2022-12-20T09:36:34.448Z,6.53
2022-12-20T09:39:02.306Z,7.40
2022-12-20T09:41:37.082Z,6.67
2022-12-20T09:44:15.274Z,6.63
2022-12-20T09:46:47.756Z,7.80
2022-12-20T09:49:19.050Z,7.03
2022-12-20T09:52:02.362Z,6.77
2022-12-20T09:54:40.575Z,7.43
2022-12-20T09:57:19.140Z,7.23
2022-12-20T09:59:50.051Z,7.13
2022-12-20T10:05:16.976Z,7.03
2022-12-20T10:07:54.711Z,7.57
2022-12-20T10:10:41.001Z,6.43
2022-12-20T10:13:22.850Z,7.00
2022-12-20T10:16:01.943Z,7.00
2022-12-20T10:18:46.682Z,7.07
2022-12-20T10:21:20.736Z,6.73
2022-12-20T10:24:01.512Z,6.43
2022-12-20T10:26:30.313Z,6.37
2022-12-20T10:28:58.059Z,6.67
2022-12-20T10:31:28.950Z,7.10
2022-12-20T10:33:57.713Z,7.70
2022-12-20T10:36:27.745Z,5.70
2022-12-20T10:38:59.251Z,6.40
2022-12-20T10:41:29.719Z,6.93
2022-12-20T10:44:01.286Z,6.43
2022-12-20T10:46:43.707Z,6.80
2022-12-20T10:49:41.051Z,5.50
2022-12-20T10:52:14.489Z,6.40
2022-12-20T10:54:44.438Z,6.37
2022-12-20T10:57:20.990Z,6.70
2022-12-20T10:59:53.982Z,6.10
2022-12-20T11:02:37.237Z,5.17
2022-12-20T11:05:23.069Z,6.07
2022-12-20T11:08:33.554Z,6.70
2022-12-20T11:10:44.310Z,6.20
2022-12-20T11:13:22.321Z,7.20
2022-12-20T11:15:52.423Z,5.90
2022-12-20T11:18:31.738Z,6.23
2022-12-20T11:21:16.232Z,5.50
2022-12-20T11:23:52.951Z,6.50
2022-12-20T11:26:32.839Z,6.23
2022-12-20T11:29:18.270Z,5.93
2022-12-20T11:31:58.193Z,6.30
2022-12-20T11:34:37.478Z,6.57
2022-12-20T11:37:20.800Z,5.33
2022-12-20T11:40:05.434Z,5.90
2022-12-20T11:42:48.524Z,5.80
2022-12-20T11:45:24.813Z,7.00
2022-12-20T11:48:27.948Z,6.47
2022-12-20T11:51:07.574Z,5.80
2022-12-20T11:53:45.608Z,6.63
2022-12-20T11:56:18.785Z,6.63
2022-12-20T11:58:54.594Z,6.87
2022-12-20T12:01:26.120Z,5.63
2022-12-20T12:04:05.556Z,5.83
2022-12-20T12:06:39.082Z,5.47
2022-12-20T12:09:17.155Z,6.43
2022-12-20T12:12:08.223Z,6.50
2022-12-20T12:14:47.511Z,5.93
2022-12-20T12:17:25.847Z,6.03
2022-12-20T12:19:58.130Z,6.90
2022-12-20T12:22:33.719Z,6.43
2022-12-20T12:25:07.530Z,6.67
2022-12-20T12:27:35.856Z,6.43
2022-12-20T12:30:04.247Z,6.13
2022-12-20T12:32:39.381Z,5.93
2022-12-20T12:35:22.962Z,6.17
2022-12-20T12:38:06.046Z,7.00
2022-12-20T12:41:00.318Z,6.33
2022-12-20T12:43:46.858Z,6.20
2022-12-20T12:46:20.371Z,6.07
2022-12-20T12:48:55.631Z,6.13
2022-12-20T12:51:28.696Z,5.10
2022-12-20T12:54:06.085Z,5.60
2022-12-20T12:56:44.601Z,5.83
2022-12-20T12:59:48.040Z,5.83
2022-12-20T13:02:50.038Z,5.40
2022-12-20T13:05:37.121Z,5.60
2022-12-20T13:08:05.898Z,6.47
2022-12-20T13:11:03.872Z,6.03
2022-12-20T13:13:31.744Z,6.03
2022-12-20T13:16:12.384Z,5.83
2022-12-20T13:18:57.218Z,5.93
2022-12-20T13:21:44.786Z,6.50
2022-12-20T13:24:37.662Z,6.53
2022-12-20T13:27:18.441Z,5.90
2022-12-20T13:30:13.506Z,6.10
2022-12-20T13:33:04.490Z,5.83
2022-12-20T13:35:45.461Z,5.70
2022-12-20T13:38:39.974Z,5.63
2022-12-20T13:41:19.187Z,6.07
2022-12-20T13:43:50.580Z,6.67
2022-12-20T13:46:25.290Z,5.90
2022-12-20T13:48:57.001Z,6.20
2022-12-20T13:51:26.857Z,7.07
2022-12-20T13:53:59.497Z,6.77
2022-12-20T13:56:36.300Z,7.07
2022-12-20T13:59:15.393Z,7.23
2022-12-20T14:01:50.660Z,6.67
2022-12-20T14:04:19.856Z,6.67
2022-12-20T14:06:53.502Z,6.23
2022-12-20T14:09:29.948Z,6.93
2022-12-20T14:12:04.686Z,7.60
2022-12-20T14:14:38.392Z,6.93
2022-12-20T14:17:19.378Z,6.47
2022-12-20T14:19:47.370Z,5.77
2022-12-20T14:22:15.543Z,5.00
2022-12-20T14:24:46.568Z,5.70
2022-12-20T14:27:15.660Z,5.93
2022-12-20T14:29:46.330Z,6.07
2022-12-20T14:32:20.310Z,6.43
2022-12-20T14:34:48.810Z,5.53
2022-12-20T14:37:29.368Z,6.40
2022-12-20T14:40:00.118Z,7.27
2022-12-20T14:42:33.807Z,7.23
2022-12-20T14:45:18.345Z,5.90
2022-12-20T14:47:57.118Z,7.33
2022-12-20T14:50:30.395Z,7.00
2022-12-20T14:53:01.964Z,7.10
2022-12-20T14:55:36.397Z,6.63
2022-12-20T14:58:24.011Z,6.23
2022-12-20T15:01:01.706Z,6.03
2022-12-20T15:03:30.294Z,6.00
2022-12-20T15:05:59.839Z,6.43
2022-12-20T15:08:32.781Z,6.70
2022-12-20T15:11:04.075Z,6.67
2022-12-20T15:13:34.336Z,5.90
2022-12-20T15:16:05.878Z,5.93
2022-12-20T15:18:33.917Z,6.80
2022-12-20T15:21:07.819Z,6.50
2022-12-20T15:23:36.155Z,6.47
2022-12-20T15:26:06.437Z,6.40
2022-12-20T15:28:34.771Z,7.37
2022-12-20T15:31:05.737Z,7.17
2022-12-20T15:33:35.788Z,7.50
2022-12-20T15:36:03.843Z,7.20
2022-12-20T15:39:03.193Z,6.67
2022-12-20T15:41:23.104Z,7.50
2022-12-20T15:43:55.229Z,6.90
2022-12-20T15:46:24.707Z,7.37
2022-12-20T15:48:52.704Z,6.83
2022-12-20T15:51:27.937Z,6.83
2022-12-20T15:53:56.257Z,6.60
2022-12-20T15:56:25.650Z,6.37
2022-12-20T15:58:53.731Z,6.53
2022-12-20T16:01:27.024Z,6.93
2022-12-20T16:03:55.147Z,7.37
2022-12-20T16:06:23.169Z,7.43
2022-12-20T16:08:51.088Z,7.83
2022-12-20T16:11:22.433Z,7.97
2022-12-20T16:13:50.695Z,8.73
2022-12-20T16:16:19.627Z,8.70
2022-12-20T16:18:49.053Z,7.77
2022-12-20T16:21:18.824Z,7.40
2022-12-20T16:23:47.054Z,7.70
2022-12-20T16:26:16.332Z,7.67
2022-12-20T16:28:44.508Z,7.77
2022-12-20T16:31:18.764Z,7.67
2022-12-20T16:33:48.009Z,7.20
2022-12-20T16:36:16.099Z,6.90
2022-12-20T16:38:44.816Z,7.90
2022-12-20T16:41:15.223Z,6.80
2022-12-20T16:43:43.606Z,8.27
2022-12-20T16:46:13.646Z,6.97
2022-12-20T16:48:42.112Z,7.27
2022-12-20T16:51:24.702Z,7.37
2022-12-20T16:56:41.332Z,7.87
2022-12-20T16:59:19.135Z,6.53
2022-12-20T17:01:49.752Z,9.73
2022-12-20T17:04:19.388Z,6.50
2022-12-20T17:06:49.087Z,7.67
2022-12-20T17:09:17.358Z,8.07
2022-12-20T17:11:45.209Z,7.37
2022-12-20T17:14:15.403Z,7.60
2022-12-20T17:16:43.285Z,8.67
2022-12-20T17:19:13.927Z,7.17
2022-12-20T17:24:31.431Z,7.90
2022-12-20T17:27:00.414Z,8.27
2022-12-20T17:29:30.720Z,8.00
2022-12-20T17:31:58.618Z,8.03
2022-12-20T17:34:27.837Z,8.97
2022-12-20T17:36:57.460Z,8.07
2022-12-20T17:39:26.694Z,8.47
2022-12-20T17:41:56.725Z,8.03
2022-12-20T17:44:26.641Z,8.60
2022-12-20T17:46:55.838Z,8.13
2022-12-20T17:49:24.526Z,8.33
2022-12-20T17:51:52.938Z,7.63
2022-12-20T17:54:34.962Z,7.60
2022-12-20T17:57:06.018Z,8.57
2022-12-20T17:59:33.929Z,7.93
2022-12-20T18:02:01.962Z,8.13
2022-12-20T18:04:30.097Z,8.07
2022-12-20T18:06:57.995Z,8.60
2022-12-20T18:09:25.855Z,8.83
2022-12-20T18:11:53.748Z,7.30
2022-12-20T18:14:23.092Z,8.07
2022-12-20T18:16:51.288Z,9.00
2022-12-20T18:19:21.553Z,7.60
2022-12-20T18:21:49.465Z,8.00
2022-12-20T18:24:18.015Z,7.50
2022-12-20T18:26:46.541Z,7.07
2022-12-20T18:29:14.602Z,8.10
2022-12-20T18:31:43.995Z,6.50
2022-12-20T18:34:11.848Z,7.73
2022-12-20T18:36:39.715Z,8.03
2022-12-20T18:39:09.481Z,8.20
2022-12-20T18:41:37.804Z,7.63
2022-12-20T18:44:07.633Z,7.40
2022-12-20T18:46:38.357Z,8.27
2022-12-20T18:49:07.967Z,7.67
2022-12-20T18:51:37.533Z,6.20
2022-12-20T18:54:06.852Z,7.60
2022-12-20T18:56:37.359Z,8.23
2022-12-20T18:59:11.322Z,7.10
2022-12-20T19:01:40.700Z,8.00
2022-12-20T19:04:11.133Z,6.93
2022-12-20T19:06:39.724Z,7.17
2022-12-20T19:09:11.516Z,6.90
2022-12-20T19:11:39.889Z,7.97
2022-12-20T19:14:08.708Z,8.33
2022-12-20T19:16:39.596Z,8.57
2022-12-20T19:19:09.431Z,7.23
2022-12-20T19:21:41.578Z,6.60
2022-12-20T19:24:11.549Z,7.30
2022-12-20T19:26:40.101Z,6.83
2022-12-20T19:29:08.594Z,8.53
2022-12-20T19:31:38.168Z,8.33
2022-12-20T19:34:08.510Z,7.27
2022-12-20T19:36:40.215Z,7.23
2022-12-20T19:39:13.236Z,8.50
2022-12-20T19:41:41.273Z,8.57
2022-12-20T19:44:09.465Z,8.03
2022-12-20T19:46:37.386Z,7.97
2022-12-20T19:49:05.324Z,8.50
2022-12-20T19:51:33.391Z,7.53
2022-12-20T19:54:02.813Z,7.30
2022-12-20T19:56:35.135Z,6.00
2022-12-20T19:59:03.828Z,7.30
2022-12-20T20:01:31.661Z,8.30
2022-12-20T20:04:01.835Z,8.17
2022-12-20T20:06:30.031Z,11.10
2022-12-20T20:08:59.749Z,8.27
2022-12-20T20:11:29.699Z,8.93
2022-12-20T20:13:57.727Z,9.60
2022-12-20T20:16:26.443Z,10.20
2022-12-20T20:18:54.495Z,9.40
2022-12-20T20:21:24.338Z,9.00
2022-12-20T20:23:53.211Z,9.00
2022-12-20T20:26:25.497Z,9.97
2022-12-20T20:28:55.574Z,10.03
2022-12-20T20:31:24.192Z,9.73
2022-12-20T20:33:52.292Z,10.03
2022-12-20T20:36:21.774Z,9.87
2022-12-20T20:38:49.835Z,9.17
2022-12-20T20:41:18.538Z,9.17
2022-12-20T20:43:46.376Z,9.97
2022-12-20T20:46:16.980Z,9.67
2022-12-20T20:48:45.736Z,16.80
2022-12-20T20:51:13.740Z,12.17
2022-12-20T20:53:41.640Z,10.97
2022-12-20T20:56:10.137Z,10.37
2022-12-20T20:58:38.387Z,9.30
2022-12-20T21:01:09.417Z,8.50
2022-12-20T21:03:40.078Z,8.90
2022-12-20T21:08:58.528Z,7.30
2022-12-20T21:11:26.543Z,7.73
2022-12-20T21:13:54.936Z,9.07
2022-12-20T21:16:24.371Z,8.23
2022-12-20T21:18:55.244Z,8.70
2022-12-20T21:21:24.582Z,7.20
2022-12-20T21:23:52.791Z,8.53
2022-12-20T21:26:22.026Z,6.83
2022-12-20T21:28:49.865Z,8.30
2022-12-20T21:31:20.066Z,7.17
2022-12-20T21:33:48.066Z,9.20
2022-12-20T21:36:19.253Z,8.30
2022-12-20T21:38:50.371Z,6.70
2022-12-20T21:41:20.062Z,8.37
2022-12-20T21:43:48.035Z,6.77
2022-12-20T21:46:16.126Z,7.53
2022-12-20T21:48:45.590Z,10.00
2022-12-20T21:51:18.473Z,9.03
2022-12-20T21:53:48.234Z,9.00
2022-12-20T21:56:19.897Z,10.33
2022-12-20T21:58:50.724Z,9.33
2022-12-20T22:01:21.301Z,7.20
2022-12-20T22:03:51.142Z,8.37
2022-12-20T22:06:20.398Z,8.23
2022-12-20T22:08:48.663Z,6.63
2022-12-20T22:11:19.665Z,6.97
2022-12-20T22:13:48.019Z,7.17
2022-12-20T22:16:17.606Z,6.50
2022-12-20T22:18:49.038Z,7.63
2022-12-20T22:21:17.866Z,6.97
2022-12-20T22:23:47.432Z,6.77
2022-12-20T22:26:17.099Z,8.77
2022-12-20T22:28:46.924Z,6.60
2022-12-20T22:31:15.475Z,7.83
2022-12-20T22:33:43.596Z,6.60
2022-12-20T22:36:15.909Z,6.57
2022-12-20T22:38:44.755Z,7.37
2022-12-20T22:41:16.554Z,7.77
2022-12-20T22:43:45.827Z,7.60
2022-12-20T22:46:17.382Z,6.10
2022-12-20T22:48:45.938Z,5.73
2022-12-20T22:51:16.500Z,7.07
2022-12-20T22:53:45.319Z,7.57
2022-12-20T22:56:15.305Z,6.47
2022-12-20T22:58:43.827Z,5.70
2022-12-20T23:01:15.209Z,5.40
2022-12-20T23:03:43.529Z,7.13
2022-12-20T23:06:13.731Z,6.17
2022-12-20T23:08:42.286Z,6.73
2022-12-20T23:11:34.867Z,8.37
2022-12-20T23:14:20.650Z,8.23
2022-12-20T23:16:48.501Z,6.97
2022-12-20T23:19:16.519Z,7.13
2022-12-20T23:22:02.788Z,6.63
2022-12-20T23:24:32.887Z,5.20
2022-12-20T23:27:02.288Z,4.67
2022-12-20T23:29:30.903Z,4.43
2022-12-20T23:31:58.924Z,4.30
2022-12-20T23:34:26.883Z,4.20
2022-12-20T23:36:54.702Z,4.20
2022-12-20T23:39:22.576Z,4.83
2022-12-20T23:41:50.365Z,4.97
2022-12-20T23:44:22.318Z,5.40
2022-12-20T23:46:50.757Z,5.30
2022-12-20T23:49:18.691Z,5.70
2022-12-20T23:51:46.446Z,6.23
2022-12-20T23:54:15.210Z,6.50
2022-12-20T23:56:42.971Z,5.90
2022-12-20T23:59:10.777Z,5.10
